ESML weather

Public forecast

Using degrees Celsius for public forecast. Weather courtesy of forecast.io.

Closest aviation weather report (METAR) to Landskrona Airport

Closest report is Ljungbyhed Airport, 14.1 nm (26.2 km) NE. Retrieved 2020/08/10 14:20 UTC (18 minutes ago):

ESTL 101420Z AUTO 12010KT 9999 FEW058/// 23/19 Q1021

Closest aviation forecast (TAF) to Landskrona Airport

Forecast is more than 12 hours old.

Closest forecast is Ljungbyhed Airport, 14.1 nm (26.2 km) NE. Retrieved 2016/03/01 09:33 UTC (4 years ago):

TAF ESTL 010830Z 0109/0124 14004KT 9999 SCT025